Eastman, NH

9:58 PM EST on January 17, 2017 (GMT -0500)
Eastman - Greensward | | Change Station
Active Advisory: Winter Weather Advisory

Elev 1175 ft 43.51 °N, 72.12 °W | Updated 6 seconds ago

Snow
Snow
29.8 °F
Feels Like 26 °F
N
4.0
Wind Variable Wind from SSE

Today
High -- | Low -- °F
--% Chance of Precip.
Yesterday
High -- | Low -- °F
Precip. -- in
Pressure 30.12 in
Visibility 2.5 miles
Clouds Few 1300 ft
Overcast 1900 ft
Windchill 26 °F
Dew Point 28 °F
Humidity 96%
Rainfall 0.00 in
Snow Depth Not available.
7:17 AM 4:40 PM
Waning Gibbous, 67% visible
METAR KLEB 180253Z 00000KT 2 1/2SM -SN BR FEW013 OVC019 01/00 A3009 RMK AO2 SLP199 P0003 60007 T00060000 56013
Pressure 30.12 in
Visibility 2.5 miles
Clouds Few 1300 ft
Overcast 1900 ft
Windchill 26 °F
Dew Point 28 °F
Humidity 96%
Rainfall 0.00 in
Snow Depth Not available.
7:17 AM 4:40 PM
Waning Gibbous, 67% visible
METAR KLEB 180253Z 00000KT 2 1/2SM -SN BR FEW013 OVC019 01/00 A3009 RMK AO2 SLP199 P0003 60007 T00060000 56013

Get Your Daily Forecast Email!

Thanks for signing up!

Be on the lookout for a verification email in your inbox.

You'll start receiving the daily forecast at 8 AM.

×

10-Day Weather Forecast

Almanac

Astronomy

Jan. 17, 2017 Rise Set
Actual Time
Civil Twilight
Nautical Twilight
Astronomical Twilight
Moon
Length of Visible Light
Length of Day
Tomorrow will be .
, % of the Moon is Illuminated

Today's Extremes

State Highs State Lows

Community

WunderPhotos

Upload Photos

1,962,540 photos uploaded!

WunderBlog® & News

Nearby

Air Quality

  Air Quality AQ Index Pollutant
Not available.

Snow Depth

Station Depth Elevation

Earthquake Activity

City Distance Mag. Time & Date
Minimum magnitude displayed is 2.5.

Coastal Water Temperatures

Place Temperature

Stations

Nearby Weather Stations

Station Location Temp. Windchill Dew Point Humidity Wind Precip. Elev Updated Type
                   

Watches & Warnings

Winter Weather Advisory
Issued: 9:22 PM EST Jan. 17, 2017 – National Weather Service

... Winter Weather Advisory remains in effect until 5 PM EST
Wednesday...

* hazard types... snow. Some light freezing drizzle possible
Wednesday.

* Accumulations... snow accumulation of 3 to 6 inches... along
with around a trace of ice.

* Timing... this evening through Wednesday.

* Impacts... snow will make travel difficult. The snow may be
heavy and wet at times which could cause some additional
weight on branches and wires.

* Winds... east 5 to 10 mph with gusts up to 20 mph.

* Temperatures... in the upper 20s.

Precautionary/preparedness actions...

A Winter Weather Advisory means that periods of snow... sleet... or
freezing rain will cause travel difficulties. Be prepared for
slippery roads and limited visibilities... and use caution while
driving.

For a more precise forecast for your specific location... go to
www.Weather.Gov/gray.